createdAt,value
2022-08-02T00:00:35.025Z,94846.38
2022-08-02T00:03:01.930Z,94837.72
2022-08-02T00:05:28.928Z,94851.63
2022-08-02T00:07:55.779Z,94855.31
2022-08-02T00:10:22.500Z,94849.03
2022-08-02T00:12:49.573Z,94857.16
2022-08-02T00:15:16.648Z,94834.56
2022-08-02T00:17:44.536Z,94853.75
2022-08-02T00:20:13.601Z,94853.19
2022-08-02T00:22:40.504Z,94845.56
2022-08-02T00:25:07.746Z,94843.19
2022-08-02T00:27:34.685Z,94835.28
2022-08-02T00:30:01.665Z,94839.97
2022-08-02T00:32:28.684Z,94843.63
2022-08-02T00:34:55.548Z,94849.66
2022-08-02T00:37:22.390Z,94850.16
2022-08-02T00:39:49.313Z,94843.56
2022-08-02T00:42:16.261Z,94849.88
2022-08-02T00:44:43.337Z,94847.25
2022-08-02T00:47:10.412Z,94836.19
2022-08-02T00:49:37.752Z,94844.63
2022-08-02T00:52:05.331Z,94835.09
2022-08-02T00:54:32.181Z,94841.84
2022-08-02T00:56:59.085Z,94840.03
2022-08-02T00:59:25.994Z,94849.72
2022-08-02T01:01:55.683Z,94841.06
2022-08-02T01:04:30.728Z,94845.44
2022-08-02T01:07:12.600Z,94839.66
2022-08-02T01:09:46.844Z,94840.44
2022-08-02T01:12:14.336Z,94837.00
2022-08-02T01:14:48.375Z,94835.16
2022-08-02T01:17:20.961Z,94838.03
2022-08-02T01:20:18.808Z,94845.88
2022-08-02T01:23:23.685Z,94835.91
2022-08-02T01:26:08.838Z,94834.31
2022-08-02T01:28:56.800Z,94840.56
2022-08-02T01:31:38.968Z,94841.09
2022-08-02T01:34:34.278Z,94827.41
2022-08-02T01:37:07.006Z,94832.34
2022-08-02T01:39:39.073Z,94829.44
2022-08-02T01:42:06.720Z,94826.81
2022-08-02T01:44:36.748Z,94840.47
2022-08-02T01:47:09.433Z,94832.63
2022-08-02T01:49:38.612Z,94828.50
2022-08-02T01:52:21.800Z,94826.91
2022-08-02T01:55:18.563Z,94831.06
2022-08-02T01:58:03.286Z,94822.16
2022-08-02T02:00:33.750Z,94828.91
2022-08-02T02:03:02.412Z,94815.22
2022-08-02T02:05:32.318Z,94823.88
2022-08-02T02:08:05.988Z,94823.91
2022-08-02T02:10:35.737Z,94831.78
2022-08-02T02:13:06.788Z,94830.97
2022-08-02T02:15:35.546Z,94835.66
2022-08-02T02:18:12.652Z,94827.28
2022-08-02T02:20:42.511Z,94811.91
2022-08-02T02:23:10.558Z,94834.50
2022-08-02T02:25:41.838Z,94825.00
2022-08-02T02:28:22.378Z,94841.72
2022-08-02T02:30:53.420Z,94842.69
2022-08-02T02:33:27.718Z,94836.31
2022-08-02T02:35:58.287Z,94834.72
2022-08-02T02:38:30.696Z,94835.25
2022-08-02T02:41:00.926Z,94831.75
2022-08-02T02:43:31.161Z,94831.00
2022-08-02T02:45:58.730Z,94825.19
2022-08-02T02:48:27.112Z,94830.38
2022-08-02T02:50:54.584Z,94842.31
2022-08-02T02:53:23.084Z,94817.03
2022-08-02T02:56:01.687Z,94847.41
2022-08-02T02:58:31.254Z,94845.38
2022-08-02T03:01:16.556Z,94843.25
2022-08-02T03:03:45.236Z,94836.88
2022-08-02T03:06:15.806Z,94831.53
2022-08-02T03:08:43.512Z,94839.41
2022-08-02T03:11:11.264Z,94842.56
2022-08-02T03:13:39.262Z,94842.09
2022-08-02T03:16:06.704Z,94845.44
2022-08-02T03:18:40.564Z,94848.81
2022-08-02T03:21:12.974Z,94841.50
2022-08-02T03:23:42.379Z,94846.22
2022-08-02T03:26:10.382Z,94843.59
2022-08-02T03:28:37.434Z,94844.09
2022-08-02T03:31:04.627Z,94839.97
2022-08-02T03:33:32.428Z,94838.44
2022-08-02T03:36:11.665Z,94826.84
2022-08-02T03:38:39.332Z,94845.44
2022-08-02T03:41:07.675Z,94837.94
2022-08-02T03:43:36.805Z,94823.56
2022-08-02T03:46:05.255Z,94850.59
2022-08-02T03:48:33.846Z,94832.25
2022-08-02T03:51:02.625Z,94838.56
2022-08-02T03:53:30.232Z,94851.75
2022-08-02T03:55:57.763Z,94844.69
2022-08-02T03:58:24.900Z,94856.50
2022-08-02T04:00:57.637Z,94866.50
2022-08-02T04:03:27.935Z,94853.97
2022-08-02T04:06:03.230Z,94867.63
2022-08-02T04:08:35.527Z,94862.28
2022-08-02T04:11:23.133Z,94857.66
2022-08-02T04:13:50.415Z,94876.72
2022-08-02T04:16:22.993Z,94870.03
2022-08-02T04:18:58.425Z,94873.53
2022-08-02T04:21:48.970Z,94874.91
2022-08-02T04:24:18.635Z,94867.91
2022-08-02T04:26:48.986Z,94877.97
2022-08-02T04:29:18.718Z,94851.25
2022-08-02T04:31:45.978Z,94870.25
2022-08-02T04:34:15.486Z,94867.66
2022-08-02T04:36:43.513Z,94873.72
2022-08-02T04:39:10.963Z,94880.84
2022-08-02T04:41:43.918Z,94874.56
2022-08-02T04:44:11.905Z,94879.34
2022-08-02T04:46:39.819Z,94863.03
2022-08-02T04:49:06.899Z,94877.25
2022-08-02T04:51:38.439Z,94885.72
2022-08-02T04:54:09.996Z,94884.94
2022-08-02T04:56:38.752Z,94890.47
2022-08-02T04:59:06.592Z,94882.63
2022-08-02T05:01:33.394Z,94894.72
2022-08-02T05:04:00.320Z,94907.31
2022-08-02T05:06:27.318Z,94913.38
2022-08-02T05:08:54.273Z,94903.13
2022-08-02T05:11:34.538Z,94902.34
2022-08-02T05:14:05.853Z,94896.81
2022-08-02T05:16:33.002Z,94910.72
2022-08-02T05:19:01.310Z,94904.66
2022-08-02T05:21:29.305Z,94900.97
2022-08-02T05:23:56.111Z,94910.41
2022-08-02T05:26:22.842Z,94905.69
2022-08-02T05:28:49.845Z,94908.28
2022-08-02T05:31:16.685Z,94911.97
2022-08-02T05:33:43.451Z,94908.56
2022-08-02T05:36:10.333Z,94906.94
2022-08-02T05:38:37.966Z,94896.19
2022-08-02T05:41:08.084Z,94883.56
2022-08-02T05:43:34.894Z,94905.06
2022-08-02T05:46:01.705Z,94910.28
2022-08-02T05:48:31.978Z,94912.28
2022-08-02T05:51:10.242Z,94907.50
2022-08-02T05:53:45.316Z,94906.97
2022-08-02T05:56:31.338Z,94915.31
2022-08-02T05:59:18.526Z,94913.75
2022-08-02T06:01:48.586Z,94916.81
2022-08-02T06:04:25.192Z,94928.28
2022-08-02T06:06:56.062Z,94922.94
2022-08-02T06:09:26.618Z,94927.66
2022-08-02T06:12:01.778Z,94922.31
2022-08-02T06:14:33.022Z,94926.41
2022-08-02T06:17:04.795Z,94943.22
2022-08-02T06:19:46.906Z,94933.00
2022-08-02T06:22:37.762Z,94945.16
2022-08-02T06:25:05.789Z,94949.38
2022-08-02T06:27:34.031Z,94949.97
2022-08-02T06:30:02.452Z,94944.44
2022-08-02T06:32:29.157Z,94946.75
2022-08-02T06:34:56.667Z,94955.75
2022-08-02T06:37:44.912Z,94951.69
2022-08-02T06:40:27.978Z,94946.50
2022-08-02T06:43:25.904Z,94949.50
2022-08-02T06:45:52.794Z,94948.28
2022-08-02T06:48:19.626Z,94921.78
2022-08-02T06:50:46.511Z,94954.91
2022-08-02T06:53:13.583Z,94951.50
2022-08-02T06:55:43.815Z,94940.66
2022-08-02T06:58:12.785Z,94912.25
2022-08-02T07:00:40.953Z,94938.53
2022-08-02T07:03:07.748Z,94950.50
2022-08-02T07:05:35.071Z,94940.19
2022-08-02T07:08:02.950Z,94944.22
2022-08-02T07:10:29.769Z,94952.38
2022-08-02T07:12:59.744Z,94940.41
2022-08-02T07:15:27.150Z,94948.44
2022-08-02T07:17:55.405Z,94940.47
2022-08-02T07:20:22.179Z,94938.56
2022-08-02T07:22:49.024Z,94942.91
2022-08-02T07:25:16.267Z,94930.09
2022-08-02T07:27:43.372Z,94929.91
2022-08-02T07:30:10.758Z,94937.66
2022-08-02T07:32:38.172Z,94944.03
2022-08-02T07:35:07.523Z,94937.97
2022-08-02T07:37:55.417Z,94937.09
2022-08-02T07:40:24.397Z,94936.84
2022-08-02T07:42:56.448Z,94943.06
2022-08-02T07:45:25.402Z,94935.28
2022-08-02T07:47:52.805Z,94930.78
2022-08-02T07:50:21.150Z,94930.63
2022-08-02T07:52:48.165Z,94929.41
2022-08-02T07:55:17.931Z,94932.41
2022-08-02T07:57:46.985Z,94924.75
2022-08-02T08:00:16.418Z,94934.16
2022-08-02T08:02:44.133Z,94931.38
2022-08-02T08:05:12.116Z,94928.53
2022-08-02T08:07:39.532Z,94933.09
2022-08-02T08:10:07.627Z,94929.31
2022-08-02T08:12:34.708Z,94934.16
2022-08-02T08:15:01.553Z,94935.69
2022-08-02T08:17:28.513Z,94929.75
2022-08-02T08:19:55.451Z,94935.38
2022-08-02T08:22:23.144Z,94920.03
2022-08-02T08:24:50.375Z,94926.34
2022-08-02T08:27:18.414Z,94934.00
2022-08-02T08:29:46.471Z,94927.09
2022-08-02T08:32:17.863Z,94929.59
2022-08-02T08:34:49.178Z,94918.50
2022-08-02T08:37:16.511Z,94933.19
2022-08-02T08:39:57.065Z,94930.50
2022-08-02T08:42:27.534Z,94934.56
2022-08-02T08:44:56.699Z,94932.09
2022-08-02T08:47:33.554Z,94922.16
2022-08-02T08:50:06.883Z,94932.47
2022-08-02T08:52:41.630Z,94926.59
2022-08-02T08:55:13.945Z,94933.41
2022-08-02T08:57:42.664Z,94922.25
2022-08-02T09:00:13.576Z,94921.41
2022-08-02T09:02:42.746Z,94919.94
2022-08-02T09:05:15.743Z,94920.63
2022-08-02T09:07:45.039Z,94927.09
2022-08-02T09:10:41.271Z,94928.97
2022-08-02T09:13:38.665Z,94906.97
2022-08-02T09:16:12.138Z,94919.28
2022-08-02T09:18:46.353Z,94929.47
2022-08-02T09:21:17.104Z,94910.31
2022-08-02T09:23:47.760Z,94924.34
2022-08-02T09:26:19.318Z,94927.91
2022-08-02T09:28:50.305Z,94924.94
2022-08-02T09:31:22.921Z,94925.56
2022-08-02T09:33:54.701Z,94923.63
2022-08-02T09:36:22.374Z,94920.97
2022-08-02T09:39:13.199Z,94923.41
2022-08-02T09:41:42.258Z,94929.00
2022-08-02T09:44:15.564Z,94927.91
2022-08-02T09:46:46.906Z,94929.41
2022-08-02T09:49:19.610Z,94929.19
2022-08-02T09:51:49.724Z,94931.16
2022-08-02T09:54:19.191Z,94930.88
2022-08-02T09:56:51.824Z,94922.16
2022-08-02T09:59:21.510Z,94906.59
2022-08-02T10:01:51.707Z,94918.69
2022-08-02T10:04:30.917Z,94917.09
2022-08-02T10:07:00.019Z,94908.13
2022-08-02T10:09:28.998Z,94917.44
2022-08-02T10:11:56.899Z,94910.06
2022-08-02T10:14:24.118Z,94921.53
2022-08-02T10:16:53.547Z,94922.81
2022-08-02T10:19:59.564Z,94909.63
2022-08-02T10:22:13.716Z,94913.09
2022-08-02T10:24:48.127Z,94916.53
2022-08-02T10:27:20.348Z,94917.28
2022-08-02T10:29:55.641Z,94923.38
2022-08-02T10:32:39.923Z,94921.63
2022-08-02T10:35:19.578Z,94917.72
2022-08-02T10:38:07.977Z,94916.34
2022-08-02T10:40:52.835Z,94916.00
2022-08-02T10:43:31.727Z,94905.19
2022-08-02T10:46:34.650Z,94914.72
2022-08-02T10:49:01.488Z,94910.13
2022-08-02T10:51:56.467Z,94908.13
2022-08-02T10:54:47.856Z,94913.22
2022-08-02T10:57:37.628Z,94903.72
2022-08-02T11:00:20.906Z,94911.00
2022-08-02T11:02:53.223Z,94910.59
2022-08-02T11:05:42.250Z,94909.19
2022-08-02T11:08:22.685Z,94908.97
2022-08-02T11:10:49.693Z,94895.88
2022-08-02T11:13:20.031Z,94903.31
2022-08-02T11:16:11.265Z,94903.97
2022-08-02T11:18:50.532Z,94902.34
2022-08-02T11:21:25.435Z,94904.56
2022-08-02T11:23:53.267Z,94906.16
2022-08-02T11:26:29.284Z,94906.00
2022-08-02T11:29:00.696Z,94908.25
2022-08-02T11:31:28.522Z,94898.63
2022-08-02T11:33:55.847Z,94902.84
2022-08-02T11:36:24.678Z,94908.75
2022-08-02T11:39:09.665Z,94907.31
2022-08-02T11:41:45.867Z,94908.97
2022-08-02T11:44:13.998Z,94899.31
2022-08-02T11:46:41.120Z,94907.03
2022-08-02T11:49:15.749Z,94902.78
2022-08-02T11:51:59.620Z,94899.22
2022-08-02T11:54:32.525Z,94904.81
2022-08-02T11:57:20.343Z,94887.13
2022-08-02T11:59:52.693Z,94898.91
2022-08-02T12:02:27.057Z,94909.00
2022-08-02T12:05:08.943Z,94896.91
2022-08-02T12:07:46.144Z,94905.44
2022-08-02T12:10:19.514Z,94904.28
2022-08-02T12:12:54.283Z,94899.66
2022-08-02T12:15:42.084Z,94895.69
2022-08-02T12:18:29.459Z,94896.53
2022-08-02T12:20:56.809Z,94903.81
2022-08-02T12:23:24.661Z,94896.38
2022-08-02T12:26:05.552Z,94889.09
2022-08-02T12:28:41.091Z,94889.69
2022-08-02T12:31:10.766Z,94886.97
2022-08-02T12:33:51.260Z,94891.59
2022-08-02T12:36:23.256Z,94884.00
2022-08-02T12:38:58.371Z,94891.13
2022-08-02T12:41:31.500Z,94885.69
2022-08-02T12:44:00.039Z,94888.84
2022-08-02T12:46:26.918Z,94888.34
2022-08-02T12:49:15.212Z,94884.97
2022-08-02T12:51:51.036Z,94887.84
2022-08-02T12:54:38.969Z,94885.13
2022-08-02T12:57:13.430Z,94880.91
2022-08-02T12:59:42.183Z,94877.03
2022-08-02T13:02:14.620Z,94885.50
2022-08-02T13:04:50.036Z,94878.13
2022-08-02T13:07:18.685Z,94887.94
2022-08-02T13:09:46.890Z,94887.03
2022-08-02T13:12:14.599Z,94876.59
2022-08-02T13:14:42.739Z,94890.53
2022-08-02T13:17:12.747Z,94888.97
2022-08-02T13:19:40.959Z,94883.88
2022-08-02T13:22:08.649Z,94887.34
2022-08-02T13:24:40.617Z,94882.78
2022-08-02T13:27:22.401Z,94896.53
2022-08-02T13:29:50.381Z,94891.16
2022-08-02T13:32:17.787Z,94898.47
2022-08-02T13:34:44.824Z,94896.03
2022-08-02T13:37:11.772Z,94888.19
2022-08-02T13:39:38.834Z,94890.31
2022-08-02T13:42:07.061Z,94889.66
2022-08-02T13:44:34.878Z,94898.56
2022-08-02T13:47:02.541Z,94904.50
2022-08-02T13:49:51.627Z,94896.59
2022-08-02T13:52:18.867Z,94898.56
2022-08-02T13:54:45.966Z,94897.38
2022-08-02T13:57:13.008Z,94869.94
2022-08-02T13:59:57.799Z,94899.22
2022-08-02T14:02:28.164Z,94896.41
2022-08-02T14:04:55.343Z,94900.47
2022-08-02T14:07:22.532Z,94899.78
2022-08-02T14:09:49.388Z,94903.41
2022-08-02T14:12:16.882Z,94907.31
2022-08-02T14:14:44.014Z,94905.13
2022-08-02T14:17:12.432Z,94901.16
2022-08-02T14:19:40.025Z,94910.69
2022-08-02T14:22:21.305Z,94909.31
2022-08-02T14:24:48.411Z,94906.31
2022-08-02T14:27:15.943Z,94910.66
2022-08-02T14:29:42.864Z,94902.81
2022-08-02T14:32:10.110Z,94916.38
2022-08-02T14:34:37.229Z,94916.38
2022-08-02T14:37:05.644Z,94907.84
2022-08-02T14:39:43.207Z,94908.00
2022-08-02T14:42:19.265Z,94912.34
2022-08-02T14:44:46.013Z,94910.53
2022-08-02T14:47:12.950Z,94914.53
2022-08-02T14:49:42.311Z,94910.91
2022-08-02T14:52:10.480Z,94909.81
2022-08-02T14:54:37.416Z,94906.09
2022-08-02T14:57:04.602Z,94902.53
2022-08-02T14:59:31.585Z,94890.25
2022-08-02T15:01:59.164Z,94894.31
2022-08-02T15:04:26.422Z,94886.59
2022-08-02T15:06:53.816Z,94879.97
2022-08-02T15:09:21.726Z,94865.50
2022-08-02T15:11:49.563Z,94883.56
2022-08-02T15:14:20.443Z,94890.25
2022-08-02T15:16:58.021Z,94888.81
2022-08-02T15:19:56.750Z,94890.75
2022-08-02T15:22:19.045Z,94901.28
2022-08-02T15:24:47.937Z,94903.16
2022-08-02T15:27:16.558Z,94896.25
2022-08-02T15:29:45.050Z,94903.22
2022-08-02T15:32:13.356Z,94915.38
2022-08-02T15:34:40.760Z,94909.22
2022-08-02T15:37:09.040Z,94910.94
2022-08-02T15:39:36.185Z,94901.06
2022-08-02T15:42:03.543Z,94906.22
2022-08-02T15:44:30.430Z,94913.69
2022-08-02T15:46:57.296Z,94909.72
2022-08-02T15:49:25.290Z,94909.03
2022-08-02T15:51:53.104Z,94917.09
2022-08-02T15:54:20.159Z,94920.22
2022-08-02T15:56:47.135Z,94917.56
2022-08-02T15:59:14.228Z,94915.34
2022-08-02T16:01:46.518Z,94912.19
2022-08-02T16:04:14.806Z,94918.97
2022-08-02T16:06:42.031Z,94907.94
2022-08-02T16:09:09.143Z,94906.72
2022-08-02T16:11:36.168Z,94911.41
2022-08-02T16:14:02.901Z,94905.75
2022-08-02T16:16:32.706Z,94917.47
2022-08-02T16:19:47.082Z,94915.31
2022-08-02T16:21:48.368Z,94918.16
2022-08-02T16:24:15.088Z,94923.59
2022-08-02T16:26:42.461Z,94928.47
2022-08-02T16:29:09.626Z,94921.94
2022-08-02T16:31:41.619Z,94922.44
2022-08-02T16:34:09.594Z,94923.44
2022-08-02T16:36:36.593Z,94927.34
2022-08-02T16:39:03.810Z,94928.94
2022-08-02T16:41:50.861Z,94934.25
2022-08-02T16:44:17.478Z,94924.47
2022-08-02T16:46:44.951Z,94923.97
2022-08-02T16:49:12.986Z,94922.03
2022-08-02T16:51:59.243Z,94922.47
2022-08-02T16:54:26.564Z,94916.03
2022-08-02T16:56:53.444Z,94929.78
2022-08-02T16:59:20.206Z,94918.69
2022-08-02T17:02:11.178Z,94925.00
2022-08-02T17:04:39.080Z,94925.69
2022-08-02T17:07:11.119Z,94928.69
2022-08-02T17:10:03.900Z,94926.28
2022-08-02T17:12:34.236Z,94935.06
2022-08-02T17:15:08.930Z,94922.22
2022-08-02T17:17:48.323Z,94931.56
2022-08-02T17:20:15.386Z,94930.53
2022-08-02T17:22:44.340Z,94913.09
2022-08-02T17:25:13.597Z,94927.19
2022-08-02T17:27:43.264Z,94928.31
2022-08-02T17:30:11.507Z,94934.78
2022-08-02T17:32:38.416Z,94925.03
2022-08-02T17:35:06.956Z,94927.25
2022-08-02T17:37:41.704Z,94928.09
2022-08-02T17:40:09.799Z,94932.13
2022-08-02T17:42:36.666Z,94939.88
2022-08-02T17:45:16.257Z,94938.25
2022-08-02T17:48:04.237Z,94940.41
2022-08-02T17:50:32.665Z,94945.63
2022-08-02T17:52:59.890Z,94945.88
2022-08-02T17:55:26.968Z,94946.59
2022-08-02T17:57:59.470Z,94942.28
2022-08-02T18:00:35.077Z,94940.63
2022-08-02T18:03:05.937Z,94950.41
2022-08-02T18:05:55.045Z,94952.19
2022-08-02T18:08:23.792Z,94960.06
2022-08-02T18:10:52.924Z,94948.69
2022-08-02T18:13:20.159Z,94955.94
2022-08-02T18:15:47.739Z,94964.31
2022-08-02T18:18:19.212Z,94953.56
2022-08-02T18:20:57.303Z,94974.53
2022-08-02T18:23:24.579Z,94973.44
2022-08-02T18:25:55.172Z,94973.94
2022-08-02T18:28:26.622Z,94970.00
2022-08-02T18:30:53.992Z,94972.66
2022-08-02T18:33:56.789Z,94979.88
2022-08-02T18:36:10.773Z,94986.28
2022-08-02T18:38:51.683Z,94984.72
2022-08-02T18:41:19.254Z,94981.13
2022-08-02T18:43:48.620Z,94986.13
2022-08-02T18:46:17.315Z,94980.44
2022-08-02T18:48:47.869Z,94982.91
2022-08-02T18:51:18.997Z,94987.31
2022-08-02T18:53:48.949Z,94987.59
2022-08-02T18:56:19.723Z,94997.28
2022-08-02T18:58:55.254Z,94993.19
2022-08-02T19:01:33.453Z,95001.44
2022-08-02T19:04:04.839Z,95003.59
2022-08-02T19:06:32.464Z,94997.75
2022-08-02T19:09:11.212Z,94997.38
2022-08-02T19:11:47.426Z,95000.94
2022-08-02T19:14:27.004Z,95007.91
2022-08-02T19:16:54.570Z,95008.31
2022-08-02T19:19:22.330Z,95004.59
2022-08-02T19:22:17.352Z,94999.13
2022-08-02T19:24:37.100Z,95008.75
2022-08-02T19:27:09.023Z,95004.63
2022-08-02T19:29:42.688Z,95002.31
2022-08-02T19:32:40.134Z,95008.63
2022-08-02T19:35:15.161Z,95012.94
2022-08-02T19:37:51.124Z,95010.03
2022-08-02T19:40:24.441Z,95012.78
2022-08-02T19:43:05.313Z,95004.16
2022-08-02T19:45:50.089Z,95000.66
2022-08-02T19:48:23.418Z,95006.66
2022-08-02T19:50:56.583Z,95002.00
2022-08-02T19:56:20.360Z,95010.84
2022-08-02T19:58:47.648Z,95011.03
2022-08-02T20:01:16.861Z,95004.94
2022-08-02T20:03:51.411Z,95009.72
2022-08-02T20:06:20.279Z,95017.69
2022-08-02T20:08:59.189Z,95013.53
2022-08-02T20:11:29.197Z,95019.75
2022-08-02T20:14:05.479Z,95008.91
2022-08-02T20:16:37.529Z,95001.06
2022-08-02T20:19:07.791Z,95011.06
2022-08-02T20:21:37.632Z,95008.56
2022-08-02T20:24:10.141Z,95003.84
2022-08-02T20:26:47.612Z,94999.66
2022-08-02T20:29:17.586Z,94990.97
2022-08-02T20:32:04.547Z,94995.06
2022-08-02T20:34:31.357Z,95010.38
2022-08-02T20:37:00.607Z,95003.28
2022-08-02T20:39:47.881Z,95014.06
2022-08-02T20:42:23.697Z,95010.38
2022-08-02T20:44:55.027Z,95012.78
2022-08-02T20:47:28.421Z,95010.50
2022-08-02T20:50:30.517Z,95013.44
2022-08-02T20:53:03.136Z,95017.09
2022-08-02T20:55:30.988Z,95021.59
2022-08-02T20:58:01.103Z,95014.06
2022-08-02T21:00:28.872Z,95020.25
2022-08-02T21:02:55.739Z,95004.84
2022-08-02T21:05:43.628Z,95015.72
2022-08-02T21:08:14.198Z,95024.00
2022-08-02T21:10:43.712Z,95024.09
2022-08-02T21:13:18.842Z,95015.22
2022-08-02T21:15:46.927Z,95021.09
2022-08-02T21:18:14.595Z,95018.00
2022-08-02T21:20:52.876Z,95026.00
2022-08-02T21:23:20.053Z,95030.84
2022-08-02T21:25:57.048Z,95035.41
2022-08-02T21:28:35.050Z,95034.16
2022-08-02T21:31:13.548Z,95034.69
2022-08-02T21:33:56.790Z,95035.25
2022-08-02T21:36:30.489Z,95039.06
2022-08-02T21:38:58.384Z,95035.97
2022-08-02T21:41:39.692Z,95034.47
2022-08-02T21:44:12.234Z,95034.69
2022-08-02T21:46:39.147Z,95030.81
2022-08-02T21:49:06.072Z,95026.91
2022-08-02T21:51:34.266Z,95024.22
2022-08-02T21:54:18.281Z,95030.91
2022-08-02T21:56:52.148Z,95023.56
2022-08-02T22:02:11.632Z,95021.53
2022-08-02T22:04:38.379Z,95033.09
2022-08-02T22:07:05.192Z,95031.00
2022-08-02T22:09:43.419Z,95025.00
2022-08-02T22:12:18.319Z,95027.38
2022-08-02T22:17:52.970Z,95031.63
2022-08-02T22:20:21.483Z,95033.50
2022-08-02T22:22:52.712Z,95031.19
2022-08-02T22:25:26.766Z,95023.84
2022-08-02T22:28:35.652Z,95037.31
2022-08-02T22:30:52.811Z,95034.44
2022-08-02T22:33:42.005Z,95029.22
2022-08-02T22:36:13.369Z,95026.06
2022-08-02T22:38:44.367Z,95023.97
2022-08-02T22:41:13.553Z,95030.31
2022-08-02T22:43:41.523Z,95023.47
2022-08-02T22:46:09.129Z,95028.75
2022-08-02T22:48:36.018Z,95019.28
2022-08-02T22:51:08.199Z,95014.56
2022-08-02T22:53:35.671Z,95018.78
2022-08-02T22:56:04.317Z,95023.22
2022-08-02T22:58:32.038Z,95011.41
2022-08-02T22:59:03.937Z,95029.09
2022-08-02T22:59:04.405Z,95027.88
2022-08-02T22:59:07.275Z,95012.22
2022-08-02T23:00:58.911Z,95016.66
2022-08-02T23:03:25.832Z,95023.47
2022-08-02T23:05:52.872Z,95031.38
2022-08-02T23:08:19.963Z,95032.69
2022-08-02T23:10:46.785Z,95028.75
2022-08-02T23:13:13.793Z,95020.88
2022-08-02T23:16:00.685Z,95020.84
2022-08-02T23:18:47.004Z,95026.13
2022-08-02T23:21:14.381Z,95024.03
2022-08-02T23:24:01.795Z,95028.75
2022-08-02T23:26:29.005Z,95033.75
2022-08-02T23:28:56.139Z,95037.69
2022-08-02T23:31:33.960Z,95031.91
2022-08-02T23:34:06.005Z,95038.22
2022-08-02T23:36:34.100Z,95038.19
2022-08-02T23:39:01.090Z,95034.00
2022-08-02T23:41:27.979Z,95043.47
2022-08-02T23:44:12.489Z,95039.78
2022-08-02T23:46:52.296Z,95034.78
2022-08-02T23:49:25.618Z,95036.63
2022-08-02T23:51:54.031Z,95036.06
2022-08-02T23:54:24.264Z,95045.78
2022-08-02T23:56:51.784Z,95040.25
2022-08-02T23:59:18.648Z,95050.47
